NYO weather

Stockholm Skavsta Airport
Stockholm / Nyköping, Södermanlands län, Sweden

Public forecast

Using degrees Celsius for public forecast. Weather courtesy of forecast.io.

METAR (pilot weather report)

Retrieved 2019/03/18 17:20 UTC (0 seconds ago):

ESKN 181720Z 32011KT 8000 -SNRA BKN010 01/M00 Q0999 R26/290195

TAF (pilot weather forecast)

Retrieved 2019/03/18 12:33 UTC (5 hours ago):

TAF ESKN 181130Z 1812/1912 23008KT 9999 -RA SCT007 BKN015 TEMPO 1812/1817 4000 SHRA BKN009 BKN020CB BECMG 1812/1813 33010KT TEMPO 1817/1821 2000 SNRA BKN004 BKN020CB